createdAt,value
2022-10-15T00:01:22.117Z,12.60
2022-10-15T00:03:49.007Z,12.60
2022-10-15T00:06:20.133Z,12.60
2022-10-15T00:08:48.039Z,12.60
2022-10-15T00:11:22.707Z,12.70
2022-10-15T00:13:50.597Z,12.70
2022-10-15T00:16:21.949Z,12.70
2022-10-15T00:18:49.990Z,12.70
2022-10-15T00:21:19.219Z,12.70
2022-10-15T00:23:47.883Z,12.80
2022-10-15T00:26:22.775Z,12.80
2022-10-15T00:28:52.794Z,12.80
2022-10-15T00:31:26.221Z,12.80
2022-10-15T00:33:57.182Z,12.80
2022-10-15T00:36:32.820Z,12.80
2022-10-15T00:39:00.467Z,12.90
2022-10-15T00:41:35.307Z,12.90
2022-10-15T00:44:21.995Z,12.90
2022-10-15T00:46:52.615Z,12.90
2022-10-15T00:49:53.573Z,12.90
2022-10-15T00:52:32.428Z,12.90
2022-10-15T00:55:10.697Z,12.90
2022-10-15T00:57:38.568Z,12.90
2022-10-15T01:00:12.073Z,12.90
2022-10-15T01:02:39.944Z,12.90
2022-10-15T01:05:08.764Z,12.90
2022-10-15T01:07:35.611Z,12.90
2022-10-15T01:10:04.038Z,12.80
2022-10-15T01:12:52.468Z,12.90
2022-10-15T01:15:49.660Z,12.80
2022-10-15T01:18:45.648Z,12.80
2022-10-15T01:21:34.347Z,12.80
2022-10-15T01:24:01.187Z,12.80
2022-10-15T01:27:03.077Z,12.70
2022-10-15T01:30:15.916Z,12.70
2022-10-15T01:32:56.053Z,12.70
2022-10-15T01:35:47.131Z,12.70
2022-10-15T01:38:22.400Z,12.70
2022-10-15T01:40:58.911Z,12.70
2022-10-15T01:43:51.596Z,12.50
2022-10-15T01:46:58.807Z,12.40
2022-10-15T01:49:34.327Z,12.50
2022-10-15T01:52:14.693Z,12.40
2022-10-15T01:54:43.659Z,12.50
2022-10-15T01:57:12.190Z,12.40
2022-10-15T01:59:42.297Z,12.40
2022-10-15T02:02:09.056Z,12.30
2022-10-15T02:04:35.896Z,12.40
2022-10-15T02:07:16.399Z,12.50
2022-10-15T02:09:52.339Z,12.50
2022-10-15T02:12:47.136Z,12.60
2022-10-15T02:15:25.460Z,12.60
2022-10-15T02:18:11.487Z,12.60
2022-10-15T02:20:49.152Z,12.60
2022-10-15T02:23:27.185Z,12.70
2022-10-15T02:25:59.669Z,12.70
2022-10-15T02:28:29.265Z,12.70
2022-10-15T02:30:58.407Z,12.70
2022-10-15T02:33:27.571Z,12.80
2022-10-15T02:35:55.683Z,12.70
2022-10-15T02:38:26.979Z,12.80
2022-10-15T02:40:54.918Z,12.70
2022-10-15T02:43:22.507Z,12.80
2022-10-15T02:45:50.573Z,12.80
2022-10-15T02:48:18.373Z,12.70
2022-10-15T02:50:47.039Z,12.70
2022-10-15T02:53:14.332Z,12.70
2022-10-15T02:55:42.944Z,12.60
2022-10-15T02:58:09.875Z,12.60
2022-10-15T03:00:36.784Z,12.50
2022-10-15T03:03:03.791Z,12.60
2022-10-15T03:05:30.752Z,12.40
2022-10-15T03:08:00.359Z,12.30
2022-10-15T03:10:28.138Z,12.30
2022-10-15T03:12:54.966Z,12.20
2022-10-15T03:15:22.548Z,12.20
2022-10-15T03:17:50.456Z,12.10
2022-10-15T03:20:18.005Z,12.10
2022-10-15T03:22:44.841Z,12.00
2022-10-15T03:25:12.051Z,12.00
2022-10-15T03:27:39.369Z,11.90
2022-10-15T03:30:18.972Z,11.90
2022-10-15T03:32:48.199Z,11.90
2022-10-15T03:35:15.748Z,11.80
2022-10-15T03:37:42.660Z,11.70
2022-10-15T03:40:13.540Z,11.70
2022-10-15T03:42:41.720Z,11.60
2022-10-15T03:45:10.240Z,11.60
2022-10-15T03:47:37.555Z,11.60
2022-10-15T03:50:04.936Z,11.60
2022-10-15T03:52:31.700Z,11.50
2022-10-15T03:54:59.577Z,11.60
2022-10-15T03:57:26.317Z,11.50
2022-10-15T03:59:59.664Z,11.50
2022-10-15T04:02:31.322Z,11.50
2022-10-15T04:04:58.093Z,11.70
2022-10-15T04:07:25.531Z,11.70
2022-10-15T04:09:52.394Z,11.60
2022-10-15T04:12:22.988Z,11.60
2022-10-15T04:14:50.111Z,11.70
2022-10-15T04:17:17.836Z,11.80
2022-10-15T04:19:45.090Z,11.90
2022-10-15T04:22:13.960Z,12.00
2022-10-15T04:24:46.573Z,12.00
2022-10-15T04:27:23.043Z,12.00
2022-10-15T04:29:50.251Z,12.10
2022-10-15T04:32:17.617Z,12.10
2022-10-15T04:34:46.744Z,11.90
2022-10-15T04:37:14.923Z,12.10
2022-10-15T04:39:41.968Z,12.00
2022-10-15T04:42:12.278Z,12.00
2022-10-15T04:44:40.205Z,12.00
2022-10-15T04:47:07.201Z,12.10
2022-10-15T04:49:34.031Z,12.20
2022-10-15T04:52:06.384Z,12.30
2022-10-15T04:54:55.624Z,12.30
2022-10-15T04:57:22.786Z,12.40
2022-10-15T04:59:53.875Z,12.40
2022-10-15T05:02:43.650Z,12.50
2022-10-15T05:05:21.886Z,12.50
2022-10-15T05:08:04.341Z,12.50
2022-10-15T05:10:37.488Z,12.50
2022-10-15T05:13:06.516Z,12.60
2022-10-15T05:15:36.038Z,12.50
2022-10-15T05:18:06.452Z,12.60
2022-10-15T05:20:42.652Z,12.60
2022-10-15T05:23:13.978Z,12.50
2022-10-15T05:25:43.675Z,12.50
2022-10-15T05:28:16.987Z,12.50
2022-10-15T05:30:43.781Z,12.70
2022-10-15T05:33:11.742Z,12.70
2022-10-15T05:35:39.312Z,12.70
2022-10-15T05:38:06.228Z,12.80
2022-10-15T05:40:33.302Z,12.80
2022-10-15T05:43:10.030Z,12.90
2022-10-15T05:45:36.830Z,12.90
2022-10-15T05:48:05.896Z,12.90
2022-10-15T05:50:33.072Z,13.00
2022-10-15T05:53:02.091Z,13.00
2022-10-15T05:55:41.834Z,13.10
2022-10-15T05:58:08.619Z,13.10
2022-10-15T06:00:36.429Z,13.10
2022-10-15T06:03:03.589Z,13.10
2022-10-15T06:05:31.816Z,13.10
2022-10-15T06:07:58.604Z,13.20
2022-10-15T06:10:25.485Z,13.20
2022-10-15T06:12:52.366Z,13.20
2022-10-15T06:15:19.700Z,13.20
2022-10-15T06:17:46.515Z,13.20
2022-10-15T06:20:13.619Z,13.20
2022-10-15T06:22:40.504Z,13.20
2022-10-15T06:25:09.106Z,13.20
2022-10-15T06:27:35.912Z,13.20
2022-10-15T06:30:03.698Z,13.20
2022-10-15T06:32:30.439Z,13.30
2022-10-15T06:34:57.335Z,13.30
2022-10-15T06:37:24.559Z,13.30
2022-10-15T06:39:54.840Z,13.30
2022-10-15T06:42:21.619Z,13.30
2022-10-15T06:44:48.322Z,13.30
2022-10-15T06:47:17.150Z,13.30
2022-10-15T06:49:46.077Z,13.40
2022-10-15T06:52:12.801Z,13.40
2022-10-15T06:54:39.699Z,13.40
2022-10-15T06:57:08.053Z,13.40
2022-10-15T06:59:38.482Z,13.40
2022-10-15T07:02:10.795Z,13.40
2022-10-15T07:04:37.516Z,13.40
2022-10-15T07:07:04.267Z,13.50
2022-10-15T07:09:31.301Z,13.50
2022-10-15T07:11:58.064Z,13.50
2022-10-15T07:14:24.776Z,13.50
2022-10-15T07:16:51.579Z,13.50
2022-10-15T07:19:18.514Z,13.60
2022-10-15T07:21:46.788Z,13.60
2022-10-15T07:24:13.951Z,13.60
2022-10-15T07:26:40.703Z,13.60
2022-10-15T07:29:07.437Z,13.60
2022-10-15T07:31:34.780Z,13.60
2022-10-15T07:34:01.619Z,13.60
2022-10-15T07:36:28.449Z,13.70
2022-10-15T07:38:55.285Z,13.70
2022-10-15T07:41:22.025Z,13.70
2022-10-15T07:43:51.721Z,13.70
2022-10-15T07:46:18.500Z,13.80
2022-10-15T07:48:45.296Z,13.80
2022-10-15T07:51:12.580Z,13.80
2022-10-15T07:53:39.581Z,13.90
2022-10-15T07:56:12.562Z,13.90
2022-10-15T07:58:40.502Z,13.90
2022-10-15T08:01:09.736Z,13.90
2022-10-15T08:03:37.908Z,14.00
2022-10-15T08:06:07.460Z,14.00
2022-10-15T08:08:35.776Z,14.00
2022-10-15T08:11:14.046Z,14.00
2022-10-15T08:13:42.300Z,14.00
2022-10-15T08:16:11.983Z,14.10
2022-10-15T08:18:39.278Z,14.10
2022-10-15T08:21:08.471Z,14.10
2022-10-15T08:23:36.047Z,14.10
2022-10-15T08:26:04.111Z,14.10
2022-10-15T08:28:32.911Z,14.10
2022-10-15T08:31:05.191Z,14.10
2022-10-15T08:33:35.344Z,14.20
2022-10-15T08:36:05.348Z,14.30
2022-10-15T08:38:32.451Z,14.30
2022-10-15T08:41:02.532Z,14.40
2022-10-15T08:43:38.106Z,14.50
2022-10-15T08:48:54.995Z,14.60
2022-10-15T08:51:46.873Z,14.70
2022-10-15T08:54:18.619Z,14.80
2022-10-15T08:56:53.459Z,14.90
2022-10-15T08:59:39.660Z,15.00
2022-10-15T09:02:20.115Z,15.10
2022-10-15T09:05:09.562Z,15.20
2022-10-15T09:08:00.526Z,15.30
2022-10-15T09:10:55.283Z,15.30
2022-10-15T09:13:43.713Z,15.30
2022-10-15T09:16:23.915Z,15.30
2022-10-15T09:18:53.097Z,15.30
2022-10-15T09:21:25.918Z,15.30
2022-10-15T09:24:04.259Z,15.20
2022-10-15T09:26:47.197Z,15.20
2022-10-15T09:29:38.194Z,15.20
2022-10-15T09:32:15.644Z,15.20
2022-10-15T09:34:54.336Z,15.10
2022-10-15T09:37:47.886Z,15.10
2022-10-15T09:40:28.414Z,15.10
2022-10-15T09:42:58.649Z,15.10
2022-10-15T09:45:25.420Z,15.10
2022-10-15T09:48:00.085Z,15.10
2022-10-15T09:50:42.621Z,15.20
2022-10-15T09:53:22.247Z,15.10
2022-10-15T09:56:13.547Z,15.10
2022-10-15T09:58:56.097Z,15.00
2022-10-15T10:01:24.806Z,15.00
2022-10-15T10:04:18.869Z,14.90
2022-10-15T10:06:51.410Z,14.90
2022-10-15T10:09:36.871Z,15.00
2022-10-15T10:12:19.842Z,15.00
2022-10-15T10:15:00.858Z,15.00
2022-10-15T10:17:30.132Z,15.00
2022-10-15T10:20:20.674Z,15.10
2022-10-15T10:22:52.604Z,15.20
2022-10-15T10:25:40.460Z,15.10
2022-10-15T10:28:23.912Z,15.10
2022-10-15T10:30:53.277Z,15.10
2022-10-15T10:33:32.013Z,15.10
2022-10-15T10:36:00.218Z,15.10
2022-10-15T10:38:35.185Z,15.20
2022-10-15T10:41:11.784Z,15.20
2022-10-15T10:43:54.707Z,15.20
2022-10-15T10:46:24.379Z,15.10
2022-10-15T10:48:53.726Z,15.10
2022-10-15T10:51:26.843Z,15.10
2022-10-15T10:54:06.481Z,15.10
2022-10-15T10:56:40.927Z,15.10
2022-10-15T10:59:31.159Z,15.10
2022-10-15T11:01:58.137Z,15.10
2022-10-15T11:04:28.916Z,15.10
2022-10-15T11:07:01.755Z,15.10
2022-10-15T11:10:02.442Z,15.10
2022-10-15T11:12:59.693Z,15.20
2022-10-15T11:15:56.187Z,15.20
2022-10-15T11:18:55.086Z,15.20
2022-10-15T11:21:43.061Z,15.20
2022-10-15T11:24:48.491Z,15.30
2022-10-15T11:27:46.433Z,15.30
2022-10-15T11:30:51.784Z,15.30
2022-10-15T11:33:32.939Z,15.30
2022-10-15T11:36:56.440Z,15.30
2022-10-15T11:39:57.572Z,15.30
2022-10-15T11:42:42.909Z,15.30
2022-10-15T11:45:15.698Z,15.40
2022-10-15T11:48:00.353Z,15.40
2022-10-15T11:50:46.705Z,15.40
2022-10-15T11:53:50.853Z,15.50
2022-10-15T11:56:36.488Z,15.50
2022-10-15T11:59:17.508Z,15.50
2022-10-15T12:01:57.997Z,15.60
2022-10-15T12:04:44.845Z,15.60
2022-10-15T12:07:21.842Z,15.60
2022-10-15T12:09:54.463Z,15.60
2022-10-15T12:12:43.425Z,15.60
2022-10-15T12:15:28.237Z,15.60
2022-10-15T12:18:41.045Z,15.70
2022-10-15T12:21:32.991Z,15.80
2022-10-15T12:24:00.870Z,15.80
2022-10-15T12:26:32.399Z,15.80
2022-10-15T12:29:05.011Z,15.80
2022-10-15T12:31:51.075Z,15.90
2022-10-15T12:34:36.564Z,15.90
2022-10-15T12:37:27.852Z,15.90
2022-10-15T12:40:04.135Z,15.90
2022-10-15T12:42:39.464Z,15.90
2022-10-15T12:45:22.750Z,15.90
2022-10-15T12:47:55.320Z,16.00
2022-10-15T12:50:35.116Z,16.00
2022-10-15T12:53:07.071Z,16.00
2022-10-15T12:55:39.964Z,16.00
2022-10-15T12:58:39.383Z,15.90
2022-10-15T13:01:27.077Z,15.90
2022-10-15T13:04:00.354Z,16.00
2022-10-15T13:06:38.195Z,16.00
2022-10-15T13:09:10.152Z,16.00
2022-10-15T13:11:53.063Z,16.10
2022-10-15T13:14:42.750Z,16.10
2022-10-15T13:17:20.705Z,16.00
2022-10-15T13:20:08.026Z,16.10
2022-10-15T13:22:36.758Z,16.20
2022-10-15T13:25:04.182Z,16.20
2022-10-15T13:27:37.550Z,16.30
2022-10-15T13:30:09.471Z,16.30
2022-10-15T13:32:45.759Z,16.40
2022-10-15T13:35:33.004Z,16.40
2022-10-15T13:38:02.695Z,16.40
2022-10-15T13:40:32.330Z,16.40
2022-10-15T13:43:02.212Z,16.40
2022-10-15T13:45:30.339Z,16.50
2022-10-15T13:47:57.500Z,16.40
2022-10-15T13:50:32.379Z,16.50
2022-10-15T13:53:27.107Z,16.50
2022-10-15T13:56:01.303Z,16.50
2022-10-15T13:58:36.266Z,16.50
2022-10-15T14:01:20.922Z,16.60
2022-10-15T14:03:56.688Z,16.60
2022-10-15T14:06:33.773Z,16.60
2022-10-15T14:09:30.430Z,16.60
2022-10-15T14:12:02.207Z,16.60
2022-10-15T14:14:43.838Z,16.60
2022-10-15T14:17:17.388Z,16.50
2022-10-15T14:20:14.422Z,16.50
2022-10-15T14:22:40.045Z,16.40
2022-10-15T14:27:46.099Z,16.40
2022-10-15T14:30:36.677Z,16.30
2022-10-15T14:33:04.149Z,16.30
2022-10-15T14:35:37.081Z,16.30
2022-10-15T14:38:08.204Z,16.40
2022-10-15T14:40:35.014Z,16.40
2022-10-15T14:43:15.049Z,16.40
2022-10-15T14:45:53.369Z,16.40
2022-10-15T14:48:33.620Z,16.30
2022-10-15T14:51:06.656Z,16.20
2022-10-15T14:53:43.808Z,16.10
2022-10-15T14:56:23.976Z,16.10
2022-10-15T14:58:57.551Z,16.00
2022-10-15T15:01:25.194Z,16.00
2022-10-15T15:03:56.994Z,16.10
2022-10-15T15:06:23.806Z,16.20
2022-10-15T15:08:50.631Z,16.20
2022-10-15T15:11:25.302Z,16.20
2022-10-15T15:13:53.676Z,16.10
2022-10-15T15:16:20.500Z,16.00
2022-10-15T15:18:48.614Z,16.00
2022-10-15T15:21:23.598Z,16.00
2022-10-15T15:23:51.025Z,16.00
2022-10-15T15:26:17.847Z,16.00
2022-10-15T15:28:44.832Z,16.00
2022-10-15T15:31:18.180Z,16.00
2022-10-15T15:33:45.913Z,15.90
2022-10-15T15:36:23.272Z,15.90
2022-10-15T15:38:50.710Z,15.90
2022-10-15T15:41:23.894Z,15.90
2022-10-15T15:43:51.779Z,15.90
2022-10-15T15:46:18.645Z,15.80
2022-10-15T15:48:45.494Z,15.70
2022-10-15T15:51:31.673Z,15.80
2022-10-15T15:53:59.347Z,15.70
2022-10-15T15:56:26.336Z,15.70
2022-10-15T15:58:53.140Z,15.70
2022-10-15T16:01:21.032Z,15.60
2022-10-15T16:03:48.201Z,15.60
2022-10-15T16:06:15.017Z,15.50
2022-10-15T16:08:41.813Z,15.50
2022-10-15T16:11:08.703Z,15.40
2022-10-15T16:13:35.675Z,15.40
2022-10-15T16:16:02.966Z,15.30
2022-10-15T16:18:30.149Z,15.30
2022-10-15T16:20:57.545Z,15.30
2022-10-15T16:23:24.316Z,15.30
2022-10-15T16:25:51.159Z,15.20
2022-10-15T16:28:17.932Z,15.20
2022-10-15T16:30:44.712Z,15.20
2022-10-15T16:33:11.719Z,15.10
2022-10-15T16:35:38.740Z,15.10
2022-10-15T16:38:06.012Z,15.10
2022-10-15T16:40:33.521Z,15.10
2022-10-15T16:43:00.592Z,15.00
2022-10-15T16:45:27.315Z,14.90
2022-10-15T16:47:54.375Z,14.80
2022-10-15T16:50:21.227Z,14.70
2022-10-15T16:52:47.994Z,14.70
2022-10-15T16:55:16.558Z,14.80
2022-10-15T16:57:43.827Z,14.70
2022-10-15T17:00:11.510Z,14.70
2022-10-15T17:02:38.280Z,14.50
2022-10-15T17:05:05.665Z,14.50
2022-10-15T17:07:32.393Z,14.50
2022-10-15T17:09:59.118Z,14.50
2022-10-15T17:12:26.148Z,14.50
2022-10-15T17:14:53.156Z,14.40
2022-10-15T17:17:20.175Z,14.20
2022-10-15T17:19:46.982Z,14.30
2022-10-15T17:22:13.773Z,14.30
2022-10-15T17:24:40.549Z,14.40
2022-10-15T17:27:07.276Z,14.40
2022-10-15T17:29:34.133Z,14.20
2022-10-15T17:32:02.745Z,14.30
2022-10-15T17:34:29.925Z,14.30
2022-10-15T17:36:57.339Z,14.30
2022-10-15T17:39:24.251Z,14.20
2022-10-15T17:41:52.206Z,14.20
2022-10-15T17:44:20.173Z,14.30
2022-10-15T17:49:26.008Z,14.30
2022-10-15T17:51:52.842Z,14.30
2022-10-15T17:54:19.710Z,14.30
2022-10-15T17:56:48.476Z,14.20
2022-10-15T17:59:15.504Z,14.30
2022-10-15T18:02:00.208Z,14.30
2022-10-15T18:04:30.742Z,14.30
2022-10-15T18:06:57.647Z,14.30
2022-10-15T18:09:28.043Z,14.30
2022-10-15T18:11:56.860Z,14.30
2022-10-15T18:14:31.699Z,14.30
2022-10-15T18:16:58.759Z,14.30
2022-10-15T18:19:26.580Z,14.40
2022-10-15T18:21:53.871Z,14.40
2022-10-15T18:24:23.108Z,14.50
2022-10-15T18:26:50.899Z,14.50
2022-10-15T18:29:18.227Z,14.50
2022-10-15T18:31:46.830Z,14.50
2022-10-15T18:34:13.946Z,14.50
2022-10-15T18:36:42.341Z,14.50
2022-10-15T18:39:09.530Z,14.50
2022-10-15T18:41:38.071Z,14.50
2022-10-15T18:44:08.695Z,14.50
2022-10-15T18:46:35.741Z,14.50
2022-10-15T18:49:03.115Z,14.60
2022-10-15T18:51:31.059Z,14.50
2022-10-15T18:54:00.046Z,14.40
2022-10-15T18:56:27.450Z,14.40
2022-10-15T18:58:54.484Z,14.40
2022-10-15T19:01:33.783Z,14.40
2022-10-15T19:04:08.383Z,14.40
2022-10-15T19:06:39.612Z,14.40
2022-10-15T19:09:10.947Z,14.30
2022-10-15T19:11:39.978Z,14.30
2022-10-15T19:14:07.678Z,14.30
2022-10-15T19:16:35.676Z,14.40
2022-10-15T19:19:05.483Z,14.40
2022-10-15T19:21:32.595Z,14.40
2022-10-15T19:24:00.175Z,14.50
2022-10-15T19:26:28.342Z,14.50
2022-10-15T19:28:57.289Z,14.50
2022-10-15T19:31:31.053Z,14.70
2022-10-15T19:33:59.121Z,14.70
2022-10-15T19:36:33.708Z,14.60
2022-10-15T19:39:04.271Z,14.70
2022-10-15T19:41:31.388Z,14.70
2022-10-15T19:43:58.162Z,14.60
2022-10-15T19:46:26.664Z,14.70
2022-10-15T19:48:53.512Z,14.70
2022-10-15T19:51:21.551Z,14.70
2022-10-15T19:53:56.229Z,14.80
2022-10-15T19:56:23.343Z,14.80
2022-10-15T19:58:59.388Z,14.80
2022-10-15T20:01:27.461Z,14.70
2022-10-15T20:04:00.280Z,14.70
2022-10-15T20:06:30.117Z,14.70
2022-10-15T20:08:56.955Z,14.80
2022-10-15T20:11:24.831Z,14.80
2022-10-15T20:13:53.088Z,14.80
2022-10-15T20:16:22.988Z,14.80
2022-10-15T20:18:50.660Z,14.80
2022-10-15T20:21:18.078Z,14.70
2022-10-15T20:23:47.718Z,14.70
2022-10-15T20:26:16.064Z,14.70
2022-10-15T20:28:45.574Z,14.70
2022-10-15T20:31:20.503Z,14.70
2022-10-15T20:33:48.946Z,14.70
2022-10-15T20:36:22.570Z,14.70
2022-10-15T20:38:51.522Z,14.70
2022-10-15T20:41:19.248Z,14.70
2022-10-15T20:43:47.120Z,14.70
2022-10-15T20:46:22.148Z,14.60
2022-10-15T20:48:49.622Z,14.60
2022-10-15T20:51:20.661Z,14.60
2022-10-15T20:53:49.875Z,14.60
2022-10-15T20:56:16.652Z,14.60
2022-10-15T20:58:44.902Z,14.60
2022-10-15T21:01:11.667Z,14.70
2022-10-15T21:03:38.424Z,14.70
2022-10-15T21:06:05.279Z,14.70
2022-10-15T21:08:32.040Z,14.70
2022-10-15T21:11:07.839Z,14.70
2022-10-15T21:13:34.880Z,14.70
2022-10-15T21:16:05.721Z,14.70
2022-10-15T21:18:34.138Z,14.60
2022-10-15T21:21:10.826Z,14.70
2022-10-15T21:23:41.098Z,14.70
2022-10-15T21:26:10.715Z,14.70
2022-10-15T21:28:38.496Z,14.70
2022-10-15T21:31:12.183Z,14.70
2022-10-15T21:33:39.630Z,14.60
2022-10-15T21:36:24.569Z,14.70
2022-10-15T21:39:00.868Z,14.70
2022-10-15T21:41:31.196Z,14.70
2022-10-15T21:43:59.763Z,14.70
2022-10-15T21:46:27.850Z,14.70
2022-10-15T21:48:55.059Z,14.70
2022-10-15T21:51:26.806Z,14.70
2022-10-15T21:53:55.214Z,14.70
2022-10-15T21:56:22.749Z,14.60
2022-10-15T21:58:49.824Z,14.60
2022-10-15T22:01:24.124Z,14.70
2022-10-15T22:03:53.864Z,14.60
2022-10-15T22:06:21.146Z,14.60
2022-10-15T22:08:48.387Z,14.60
2022-10-15T22:11:21.229Z,14.60
2022-10-15T22:13:51.842Z,14.60
2022-10-15T22:16:19.726Z,14.70
2022-10-15T22:18:47.341Z,14.60
2022-10-15T22:21:36.321Z,14.70
2022-10-15T22:24:08.223Z,14.70
2022-10-15T22:26:39.223Z,14.70
2022-10-15T22:29:09.109Z,14.70
2022-10-15T22:31:35.947Z,14.60
2022-10-15T22:34:02.803Z,14.50
2022-10-15T22:36:31.670Z,14.60
2022-10-15T22:39:02.190Z,14.50
2022-10-15T22:41:36.870Z,14.50
2022-10-15T22:44:03.937Z,14.40
2022-10-15T22:46:35.261Z,14.40
2022-10-15T22:49:02.356Z,14.30
2022-10-15T22:51:29.712Z,14.40
2022-10-15T22:53:58.076Z,14.30
2022-10-15T22:56:26.668Z,14.20
2022-10-15T22:58:55.421Z,14.20
2022-10-15T23:01:31.919Z,14.20
2022-10-15T23:04:04.195Z,14.20
2022-10-15T23:06:33.507Z,14.20
2022-10-15T23:09:02.085Z,14.20
2022-10-15T23:11:32.976Z,14.20
2022-10-15T23:14:11.199Z,14.20
2022-10-15T23:16:44.570Z,14.10
2022-10-15T23:19:21.773Z,14.10
2022-10-15T23:21:58.403Z,14.10
2022-10-15T23:24:27.362Z,14.10
2022-10-15T23:26:54.915Z,14.10
2022-10-15T23:29:25.210Z,14.00
2022-10-15T23:31:54.249Z,14.00
2022-10-15T23:34:24.774Z,14.00
2022-10-15T23:36:52.751Z,14.00
2022-10-15T23:39:24.029Z,14.00
2022-10-15T23:41:50.954Z,14.10
2022-10-15T23:44:18.563Z,14.10
2022-10-15T23:46:45.914Z,14.10
2022-10-15T23:49:13.220Z,14.00
2022-10-15T23:51:40.766Z,14.00
2022-10-15T23:54:16.090Z,14.00
2022-10-15T23:56:43.376Z,14.00
2022-10-15T23:59:10.209Z,14.10
